Ordinary, Virginia
Current Conditions -  °F | °C
As of 6:54 PM on Wednesday 28 Jan 2015 (Local Time) from KPHF Reporting Station
Clear Clear  
Wind Chill: 31°   Ceiling: Unl
Heat Index: 36°   Visibility: 10mi
Dew Point:   Wind: 6mph
Humidity: 30%   Direction: 340°NNW
Pressure: 30.27"   Gusts: NA
Location:  37.31°N, 76.51°W
Report Text: KPHF 282354Z 34005KT 10SM CLR 02/M14 A3027 RMK AO2 SLP250 T00221139 10067 20022 53021
Loading
Personal Weather Stations






























Interactive Weather Map New forecast layout! Learn more

10-Day Weather Forecast

Advertisements
Track Severe Weather on mobile